Latest Weather Observations for Applethorpe

IDQ60801

Issued at 9:32 pm EST Tuesday 24 May 2016 (issued every 30 minutes, with the page automatically refreshed every 10 minutes)

About weather observations | Map of weather stations | Latest weather observations for QLD | Other Formats
Station Details ID: 041175 Name: APPLETHORPE Lat: -28.62 Lon: 151.95 Height: 871.6 m
Data from the previous 72 hours. | See also: Recent months at Applethorpe
Date/Time
EST
Temp
°C
App
Temp
°C
Dew
Point
Rel
Hum
%
Delta-T
°C
Wind Press
QNH
hPa
Press
MSL
hPa
Rain
since 9 am
mm
Dir
 
Spd
km/h
Gust
km/h
Spd
kts
Gust
kts
24/09:30pm 2.9 0.9 -0.4 79 1.3 CALM 0 0 0 0 1020.6 1019.3 0.0
24/09:00pm 3.3 1.2 -0.5 76 1.5 CALM 0 0 0 0 1020.5 1019.2 0.0
24/08:30pm 4.1 2.2 0.4 77 1.5 CALM 0 4 0 2 1020.5 1019.2 0.0
24/08:00pm 5.8 3.7 -0.7 63 2.6 CALM 0 2 0 1 1020.5 1019.2 0.0
24/07:30pm 8.7 5.5 -3.2 43 4.6 WSW 4 7 2 4 1020.3 1018.9 0.0
24/07:00pm 11.2 7.2 -5.9 29 6.4 WSW 7 9 4 5 1020.0 1018.6 0.0
24/06:30pm 10.2 7.2 -1.5 44 4.8 SW 4 6 2 3 1019.9 1018.5 0.0
24/06:00pm 12.1 8.4 -4.2 32 6.4 W 6 9 3 5 1019.5 1018.2 0.0
24/05:30pm 13.9 9.9 -5.7 25 7.6 W 7 13 4 7 1019.3 1017.9 0.0
24/05:00pm 14.5 10.7 -5.3 25 7.8 WSW 6 7 3 4 1019.0 1017.6 0.0
24/04:30pm 16.1 11.5 -8.4 18 9.2 WSW 9 17 5 9 1018.7 1017.3 0.0
24/04:00pm 17.7 12.8 -11.7 12 10.5 WSW 9 15 5 8 1018.6 1017.2 0.0
24/03:30pm 18.3 12.4 -15.9 8 11.3 WSW 13 22 7 12 1018.6 1017.2 0.0
24/03:00pm 18.8 12.0 -19.8 6 11.9 SW 17 24 9 13 1018.3 1016.9 0.0
24/02:30pm 19.5 14.0 -9.2 13 11.0 SW 13 22 7 12 1018.0 1016.6 0.0
24/02:00pm 19.5 13.4 -20.6 5 12.3 WSW 13 22 7 12 1018.0 1016.6 0.0
24/01:30pm 19.6 13.1 -22.9 4 12.5 W 15 26 8 14 1018.2 1016.8 0.0
24/01:00pm 20.2 14.5 -20.1 5 12.6 WSW 11 22 6 12 1018.3 1016.9 0.0
24/12:30pm 20.1 14.8 -20.8 5 12.6 W 9 17 5 9 1018.5 1017.1 0.0
24/12:00pm 19.6 14.7 -20.1 5 12.3 WSW 7 17 4 9 1018.8 1017.4 0.0
24/11:30am 19.6 15.3 -17.7 7 12.1 W 4 7 2 4 1019.4 1018.1 0.0
24/11:00am 18.5 13.6 -25.3 4 12.1 S 6 11 3 6 1020.1 1018.7 0.0
24/10:30am 17.7 14.1 -11.8 12 10.5 S 2 6 1 3 1020.6 1019.3 0.0
24/10:00am 17.4 14.2 -6.7 18 9.5 NNW 2 4 1 2 1021.0 1019.6 0.0
24/09:30am 14.0 11.8 1.1 41 5.8 W 2 4 1 2 1021.1 1019.7 0.0
24/09:00am 12.2 10.6 2.6 52 4.4 CALM 0 2 0 1 1021.2 1019.8 0.0
24/08:30am 8.9 8.0 6.0 82 1.4 CALM 0 0 0 0 1021.1 1019.7 0.0
24/08:00am 6.0 4.9 5.1 94 0.4 CALM 0 0 0 0 1020.9 1019.5 0.0
24/07:30am 2.7 1.1 2.5 99 0.1 CALM 0 0 0 0 1020.6 1019.3 0.0
24/07:00am 1.6 -0.2 1.4 99 0.1 CALM 0 0 0 0 1020.4 1019.1 0.0
24/06:30am 2.0 -0.1 2.0 100 0.0 NNE 2 4 1 2 1020.2 1018.8 0.0
24/06:00am 2.7 1.1 2.7 100 0.0 CALM 0 2 0 1 1019.9 1018.5 0.0
24/05:30am 3.7 1.9 3.5 99 0.1 NE 2 4 1 2 1019.5 1018.2 0.0
24/05:00am 5.1 3.9 4.7 97 0.2 CALM 0 0 0 0 1019.1 1017.7 0.0
24/04:30am 5.7 4.3 5.3 97 0.2 ENE 2 4 1 2 1019.1 1017.7 0.0
24/04:00am 7.2 6.4 6.6 96 0.3 CALM 0 0 0 0 1019.2 1017.8 0.0
24/03:30am 8.8 7.8 7.2 90 0.8 SSW 2 6 1 3 1019.3 1017.9 0.0
24/03:00am 12.2 10.7 8.3 77 2.0 WSW 6 13 3 7 1019.2 1017.8 0.0
24/02:30am 12.3 10.6 8.4 77 2.0 WSW 7 11 4 6 1019.2 1017.8 0.0
24/02:00am 9.5 7.9 7.9 90 0.8 SW 6 7 3 4 1019.2 1017.8 0.0
24/01:30am 8.9 7.6 7.7 92 0.6 SW 4 6 2 3 1019.4 1018.1 0.0
24/01:00am 8.8 8.3 7.8 93 0.5 CALM 0 0 0 0 1019.5 1018.2 0.0
24/12:30am 9.6 8.7 7.8 88 0.9 SSW 2 4 1 2 1019.5 1018.2 0.0
24/12:00am 10.6 9.3 7.6 82 1.5 WSW 4 7 2 4 1019.8 1018.4 0.0
 
Date/Time
EST
Temp
°C
App
Temp
°C
Dew
Point
Rel
Hum
%
Delta-T
°C
Wind Press
QNH
hPa
Press
MSL
hPa
Rain
since 9 am
mm
Dir
 
Spd
km/h
Gust
km/h
Spd
kts
Gust
kts
23/11:30pm 9.6 8.4 8.0 90 0.8 W 4 11 2 6 1019.9 1018.5 0.0
23/11:00pm 9.0 8.6 8.2 95 0.4 CALM 0 0 0 0 1019.9 1018.5 0.0
23/10:30pm 9.2 8.7 8.0 92 0.6 CALM 0 0 0 0 1020.0 1018.6 0.0
23/10:00pm 9.0 8.6 8.2 95 0.4 CALM 0 2 0 1 1020.0 1018.6 0.0
23/09:30pm 9.4 8.6 8.2 92 0.6 NW 2 2 1 1 1019.9 1018.5 0.0
23/09:00pm 9.4 9.0 8.2 92 0.6 CALM 0 0 0 0 1020.0 1018.6 0.0
23/08:30pm 9.9 9.5 8.3 90 0.8 CALM 0 0 0 0 1020.0 1018.6 0.0
23/08:00pm 10.4 10.1 8.7 89 0.9 CALM 0 0 0 0 1020.1 1018.7 0.0
23/07:30pm 11.3 11.0 8.8 84 1.3 CALM 0 0 0 0 1020.0 1018.6 0.0
23/07:00pm 11.9 11.7 9.0 82 1.5 CALM 0 0 0 0 1020.0 1018.6 0.0
23/06:30pm 13.6 13.4 9.1 74 2.4 CALM 0 0 0 0 1019.7 1018.3 0.0
23/06:00pm 16.1 15.1 9.0 63 3.8 WNW 4 7 2 4 1019.5 1018.2 0.0
23/05:30pm 17.4 16.0 8.9 57 4.6 W 6 9 3 5 1019.4 1018.1 0.0
23/05:00pm 18.2 16.6 8.8 54 5.1 WSW 7 11 4 6 1019.1 1017.7 0.0
23/04:30pm 19.2 17.2 8.5 50 5.8 WSW 9 19 5 10 1018.9 1017.5 0.0
23/04:00pm 20.3 17.7 7.6 44 6.8 WSW 11 19 6 10 1018.9 1017.5 0.0
23/03:30pm 20.5 16.9 6.9 41 7.2 WSW 15 26 8 14 1018.7 1017.3 0.0
23/03:00pm 21.1 18.1 7.8 42 7.2 WSW 13 26 7 14 1018.5 1017.1 0.0
23/02:30pm 21.2 17.7 7.4 41 7.4 SW 15 32 8 17 1018.5 1017.1 0.0
23/02:00pm 20.9 18.1 8.5 45 6.8 WSW 13 22 7 12 1018.5 1017.1 0.0
23/01:30pm 20.7 17.6 8.7 46 6.6 W 15 30 8 16 1019.1 1017.7 0.0
23/01:00pm 20.4 17.4 9.2 48 6.2 WSW 15 33 8 18 1019.5 1018.2 0.0
23/12:30pm 19.6 17.2 10.1 54 5.3 WSW 13 22 7 12 1020.1 1018.7 0.0
23/12:00pm 19.7 17.5 10.7 56 5.1 WSW 13 22 7 12 1020.6 1019.3 0.0
23/11:30am 18.9 16.7 10.9 59 4.5 WSW 13 20 7 11 1021.0 1019.6 0.0
23/11:00am 18.6 16.0 10.8 60 4.4 WSW 15 24 8 13 1021.5 1020.2 0.0
23/10:30am 18.3 16.6 11.2 63 4.0 W 11 22 6 12 1021.9 1020.6 0.0
23/10:00am 17.5 15.9 11.7 69 3.3 W 11 17 6 9 1022.5 1021.2 0.0
23/09:30am 16.2 15.3 12.5 79 2.1 W 9 17 5 9 1022.8 1021.5 0.0
23/09:00am 14.1 13.9 11.8 86 1.3 SSW 4 6 2 3 1022.9 1021.6 0.0
23/08:30am 12.2 11.9 11.3 94 0.5 SSW 4 6 2 3 1023.0 1021.7 0.0
23/08:00am 9.3 9.0 8.5 95 0.4 CALM 0 0 0 0 1023.0 1021.7 0.0
23/07:30am 6.2 5.2 5.8 97 0.2 CALM 0 0 0 0 1023.0 1021.7 0.0
23/07:00am 4.9 3.7 4.5 97 0.2 CALM 0 0 0 0 1022.9 1021.6 0.0
23/06:30am 4.5 3.2 4.0 97 0.2 CALM 0 0 0 0 1022.8 1021.5 0.0
23/06:00am 4.3 3.0 4.1 99 0.1 CALM 0 0 0 0 1022.7 1021.4 0.0
23/05:30am 4.6 3.4 4.6 100 0.0 CALM 0 0 0 0 1022.9 1021.6 0.0
23/05:00am 4.5 2.5 4.5 100 0.0 SW 4 6 2 3 1022.8 1021.5 0.0
23/04:30am 4.3 3.0 4.1 99 0.1 CALM 0 0 0 0 1022.5 1021.2 0.0
23/04:00am 4.0 2.3 3.8 99 0.1 NE 2 4 1 2 1022.4 1021.0 0.0
23/03:30am 4.6 3.3 4.1 97 0.2 CALM 0 0 0 0 1022.5 1021.2 0.0
23/03:00am 4.7 3.4 4.3 97 0.2 CALM 0 0 0 0 1022.6 1021.3 0.0
23/02:30am 5.0 3.8 4.6 97 0.2 CALM 0 0 0 0 1022.7 1021.4 0.0
23/02:00am 5.2 4.0 4.8 97 0.2 CALM 0 0 0 0 1022.9 1021.6 0.0
23/01:30am 5.3 4.2 5.1 99 0.1 CALM 0 0 0 0 1023.1 1021.8 0.0
23/01:00am 5.3 4.1 4.6 95 0.3 CALM 0 0 0 0 1023.2 1021.9 0.0
23/12:30am 5.9 4.8 5.2 95 0.3 CALM 0 0 0 0 1023.6 1022.3 0.0
23/12:00am 6.2 5.3 6.0 99 0.1 CALM 0 0 0 0 1023.7 1022.4 0.0
 
Date/Time
EST
Temp
°C
App
Temp
°C
Dew
Point
Rel
Hum
%
Delta-T
°C
Wind Press
QNH
hPa
Press
MSL
hPa
Rain
since 9 am
mm
Dir
 
Spd
km/h
Gust
km/h
Spd
kts
Gust
kts
22/11:30pm 6.4 5.4 5.8 96 0.3 CALM 0 0 0 0 1024.0 1022.7 0.0
22/11:00pm 6.3 5.4 5.9 97 0.2 CALM 0 0 0 0 1024.1 1022.8 0.0
22/10:30pm 6.9 5.7 6.3 96 0.3 NE 2 4 1 2 1024.6 1023.3 0.0
22/10:00pm 7.3 6.5 6.5 95 0.4 CALM 0 0 0 0 1024.7 1023.4 0.0
22/09:30pm 7.5 6.7 6.7 95 0.4 CALM 0 0 0 0 1024.7 1023.4 0.0
22/09:00pm 7.8 6.7 6.8 93 0.5 NNE 2 4 1 2 1024.7 1023.4 0.0
22/08:30pm 8.6 7.7 7.6 93 0.5 NE 2 4 1 2 1024.7 1023.4 0.0
22/08:00pm 9.0 8.1 7.8 92 0.6 NNE 2 4 1 2 1024.7 1023.4 0.0
22/07:30pm 9.4 8.2 8.0 91 0.7 ENE 4 4 2 2 1024.6 1023.3 0.0
22/07:00pm 10.2 9.5 8.6 90 0.8 NE 2 4 1 2 1024.3 1023.0 0.0
22/06:30pm 11.1 10.4 8.6 84 1.3 NNE 2 2 1 1 1024.2 1022.9 0.0
22/06:00pm 13.2 12.2 9.0 75 2.2 NE 4 6 2 3 1024.2 1022.9 0.0
22/05:30pm 13.8 12.8 8.7 71 2.7 NNE 4 6 2 3 1024.2 1022.9 0.0
22/05:00pm 15.8 15.3 9.5 66 3.4 E 2 6 1 3 1024.1 1022.8 0.0
22/04:30pm 16.3 16.2 9.5 64 3.7 CALM 0 0 0 0 1024.0 1022.7 0.0
22/04:00pm 18.2 17.2 9.0 55 5.0 N 4 6 2 3 1023.9 1022.6 0.0
22/03:30pm 20.6 19.8 8.2 45 6.7 NE 2 6 1 3 1023.9 1022.6 0.0
22/03:00pm 21.4 20.2 8.2 42 7.2 ESE 4 7 2 4 1023.9 1022.6 0.0
22/02:30pm 19.1 18.9 9.0 52 5.5 CALM 0 0 0 0 1023.9 1022.6 0.0
22/02:00pm 19.9 19.2 8.7 48 6.1 E 2 6 1 3 1024.1 1022.8 0.0
22/01:30pm 20.3 19.1 8.1 45 6.6 NE 4 7 2 4 1024.2 1022.9 0.0
22/01:00pm 20.7 19.8 9.3 48 6.3 ENE 4 6 2 3 1024.6 1023.3 0.0
22/12:30pm 19.5 18.2 9.1 51 5.7 NNE 6 11 3 6 1025.1 1023.8 0.0
22/12:00pm 19.6 18.2 8.8 49 5.9 E 6 11 3 6 1025.7 1024.5 0.0
22/11:30am 19.1 17.6 9.2 52 5.4 NE 7 11 4 6 1026.5 1025.3 0.0
22/11:00am 18.0 16.7 9.2 56 4.8 NNE 6 11 3 6 1026.8 1025.6 0.0
22/10:30am 17.9 16.6 9.9 59 4.4 E 7 13 4 7 1026.9 1025.7 0.0
22/10:00am 17.6 16.8 11.2 66 3.6 ENE 6 13 3 7 1027.3 1026.0 0.0
22/09:30am 16.4 15.6 11.8 74 2.6 NE 7 13 4 7 1027.4 1026.1 0.0
22/09:00am 14.7 13.6 11.8 83 1.6 NE 9 15 5 8 1027.3 1026.0 0.0
22/08:30am 14.1 13.6 12.5 90 0.9 NE 7 15 4 8 1026.9 1025.7 0.0
22/08:00am 12.5 12.7 12.0 97 0.3 ENE 2 6 1 3 1027.2 1025.9 0.0
22/07:30am 11.2 11.1 10.8 97 0.2 NE 2 4 1 2 1027.1 1025.8 0.0
22/07:00am 10.4 10.5 10.2 99 0.1 CALM 0 0 0 0 1027.2 1025.9 0.0
22/06:30am 10.8 11.0 10.6 99 0.1 CALM 0 2 0 1 1026.9 1025.7 0.0
22/06:00am 11.1 11.0 10.9 99 0.1 W 2 4 1 2 1027.1 1025.8 0.0
22/05:30am 11.5 11.5 11.1 97 0.2 ENE 2 4 1 2 1026.5 1025.3 0.0
22/05:00am 11.9 12.1 11.7 99 0.1 NE 2 6 1 3 1026.7 1025.5 0.0
22/04:30am 11.8 11.9 11.4 97 0.2 ENE 2 6 1 3 1026.3 1025.0 0.0
22/04:00am 11.8 12.2 11.4 97 0.2 CALM 0 0 0 0 1026.7 1025.5 0.0
22/03:30am 12.4 12.2 11.9 97 0.3 NE 4 7 2 4 1026.6 1025.4 0.0
22/03:00am 12.6 12.5 12.1 97 0.3 ENE 4 6 2 3 1026.8 1025.6 0.0
22/02:30am 12.7 12.6 12.2 97 0.3 ENE 4 7 2 4 1027.3 1026.0 0.0
22/02:00am 12.6 12.5 12.1 97 0.3 NE 4 11 2 6 1027.3 1026.0 0.0
22/01:30am 12.8 12.4 12.3 97 0.3 NE 6 7 3 4 1027.1 1025.8 0.0
22/01:00am 12.8 12.3 12.1 95 0.4 ENE 6 9 3 5 1027.1 1025.8 0.0
22/12:30am 12.4 12.3 12.0 97 0.2 ENE 4 9 2 5 1026.9 1025.7 0.0
22/12:00am 11.9 11.7 11.7 99 0.1 ENE 4 7 2 4 1026.9 1025.7 0.0
 
Date/Time
EST
Temp
°C
App
Temp
°C
Dew
Point
Rel
Hum
%
Delta-T
°C
Wind Press
QNH
hPa
Press
MSL
hPa
Rain
since 9 am
mm
Dir
 
Spd
km/h
Gust
km/h
Spd
kts
Gust
kts
21/11:30pm 11.8 11.5 11.4 97 0.2 NE 4 7 2 4 1026.9 1025.7 0.0
21/11:00pm 11.4 11.4 11.2 99 0.1 E 2 6 1 3 1026.9 1025.7 0.0
21/10:30pm 11.5 11.5 11.3 99 0.1 ENE 2 6 1 3 1026.9 1025.7 0.0
21/10:00pm 10.8 11.0 10.6 99 0.1 CALM 0 4 0 2 1027.3 1026.0 0.0

Other Formats:

Comma delimited format used in spreadsheet applications
http://www.bom.gov.au/fwo/IDQ60801/IDQ60801.94553.axf

JavaScript Object Notation format (JSON) in row-major order
http://www.bom.gov.au/fwo/IDQ60801/IDQ60801.94553.json